Charter Quote
Worldwide +1-877-727-2538 Call
Select Language Lang
SAFETY RELIABILITY EXPERIENCE

Private Jet Charter Services - Lukou (ZSNJ)

Paramount Business Jets offers private jet charter flights and luxury airliner charters to and from Lukou.

AIRPORT INFORMATION
ICAOZSNJ
LOCATIONNanjing, China
FACILITY TYPEAIRPORT

At Paramount Business Jets you can hire chartered private jets to and from Lukou with as little as 4 hours of notice. All flights booked via Paramount Business Jets are operated by certified direct air carriers that meet and exceed the FAA part 135 and 121 protocol or a foreign equivalent safety authority. Furthermore, Paramount Business Jets subscribes to ARGUS for their third party safety checks of operators, aircraft, and crews prior each and every flight to and from Lukou and worldwide.

  • Quote a trip using Lukou or call us 24/7 - 365 days a year at +1-877-727-2538.
Questions? Call +1-877-727-2538

METAR Weather Data at Lukou, ZSNJ

STATIONZSNJ
OBSERVEDMon Jul 22, 10:00 UTC
NOWMon Jul 22, 10:29 UTC
AGE29 min ago
WINDSE at 7 mph
VISIBILITYgreater than 7 miles
CLOUDSclear skies
TEMP93°F (34°C)
DEWPT77°F (25°C)
HUMIDITY59%
HEAT INDEX107°F (42°C)
BAROMETER1000 hPa (29.53 in Hg)
METARZSNJ 221000Z 14003MPS 110V170 CAVOK 34/25 Q1000 NOSIG

Call us on +1-877-727-2538 (24 Hours) to Hire a Private Jet or Get a Quick Quote.

Find Airports Near any Location

Processing
...